Time;durP1;ratioP1;P1;durP2;ratioP2;P2;SDS_P1;SDS_P2;PMS_P1;PMS_P2;Temp;Humidity;BMP_temperature;BMP_pressure;BME280_temperature;BME280_humidity;BME280_pressure;Samples;Min_cycle;Max_cycle;Signal;HPM_P1;HPM_P2
2021/05/30 00:00:49;;;;;;;3.83;1.35;;;17.30;63.60;;;;;;5074527;28;20544;-64
2021/05/30 00:03:17;;;;;;;3.20;1.02;;;17.30;63.30;;;;;;5074718;28;20068;-58
2021/05/30 00:05:45;;;;;;;2.55;0.75;;;17.40;63.30;;;;;;5075176;28;20107;-57
2021/05/30 00:08:14;;;;;;;3.00;1.17;;;17.40;63.30;;;;;;5074970;28;20034;-65
2021/05/30 00:10:42;;;;;;;2.20;1.00;;;17.40;63.50;;;;;;5074704;28;20455;-67
2021/05/30 00:13:11;;;;;;;5.47;1.20;;;17.40;63.90;;;;;;5074810;28;20083;-60
2021/05/30 00:15:39;;;;;;;2.03;0.85;;;17.40;63.70;;;;;;5074853;28;20052;-57
2021/05/30 00:18:06;;;;;;;2.95;1.02;;;17.40;64.00;;;;;;5075097;28;20109;-57
2021/05/30 00:20:33;;;;;;;1.92;0.90;;;17.50;63.50;;;;;;5074848;28;20025;-63
2021/05/30 00:23:01;;;;;;;1.83;0.70;;;17.50;62.90;;;;;;5074911;28;20016;-60
2021/05/30 00:25:31;;;;;;;4.53;1.20;;;17.60;62.90;;;;;;5073417;28;20036;-62
2021/05/30 00:27:59;;;;;;;3.47;0.85;;;17.50;62.80;;;;;;5074591;28;20033;-61
2021/05/30 00:30:26;;;;;;;3.78;1.48;;;17.60;62.80;;;;;;5074459;28;20029;-65
2021/05/30 00:32:54;;;;;;;2.13;0.90;;;17.60;63.00;;;;;;5074725;28;20012;-60
2021/05/30 00:35:21;;;;;;;2.20;0.73;;;17.50;62.50;;;;;;5074912;28;20024;-62
2021/05/30 00:37:50;;;;;;;3.25;1.13;;;17.50;62.50;;;;;;5074177;28;20020;-66
2021/05/30 00:40:17;;;;;;;2.20;0.70;;;17.50;62.70;;;;;;5074540;28;20027;-61
2021/05/30 00:42:45;;;;;;;2.10;0.95;;;17.50;62.80;;;;;;5074061;28;20055;-64
2021/05/30 00:45:13;;;;;;;2.95;1.17;;;17.40;63.30;;;;;;5072988;28;20024;-61
2021/05/30 00:47:41;;;;;;;4.15;1.20;;;17.40;63.30;;;;;;5074202;28;20078;-64
2021/05/30 00:50:09;;;;;;;2.35;0.65;;;17.50;64.40;;;;;;5073959;28;20036;-61
2021/05/30 00:52:39;;;;;;;3.80;0.98;;;17.50;64.50;;;;;;5072499;28;20025;-66
2021/05/30 00:55:08;;;;;;;3.08;0.90;;;17.70;63.80;;;;;;5074154;28;20028;-65
2021/05/30 00:57:35;;;;;;;1.40;0.98;;;17.80;63.30;;;;;;5073818;28;20020;-61
2021/05/30 01:00:05;;;;;;;2.40;0.93;;;17.90;63.00;;;;;;5073957;28;20069;-64
2021/05/30 01:02:32;;;;;;;1.65;0.75;;;18.00;62.60;;;;;;5073536;28;20025;-59
2021/05/30 01:05:00;;;;;;;3.08;1.00;;;18.00;62.00;;;;;;5073887;28;20395;-60
2021/05/30 01:07:27;;;;;;;3.50;1.20;;;18.00;61.90;;;;;;5073991;28;20020;-65
2021/05/30 01:09:54;;;;;;;2.97;1.08;;;18.00;62.10;;;;;;5071215;28;20148;-54
2021/05/30 01:12:23;;;;;;;1.88;0.77;;;17.90;62.00;;;;;;5073457;28;20503;-62
2021/05/30 01:14:51;;;;;;;1.98;1.00;;;17.90;62.30;;;;;;5072689;28;20152;-57
2021/05/30 01:17:18;;;;;;;3.90;1.27;;;17.90;62.60;;;;;;5073648;28;20070;-65
2021/05/30 01:19:51;;;;;;;2.63;1.00;;;17.90;62.40;;;;;;5073722;28;20044;-59
2021/05/30 01:22:18;;;;;;;4.28;0.73;;;17.80;62.50;;;;;;5073714;28;20039;-65
2021/05/30 01:24:46;;;;;;;3.05;0.95;;;17.80;63.80;;;;;;5073223;28;20063;-63
2021/05/30 01:27:13;;;;;;;2.60;0.93;;;17.90;63.60;;;;;;5073303;28;20029;-65
2021/05/30 01:29:40;;;;;;;1.52;0.98;;;18.00;63.20;;;;;;5072754;28;20036;-64
2021/05/30 01:32:12;;;;;;;2.17;0.90;;;18.00;62.70;;;;;;5073378;28;20059;-57
2021/05/30 01:34:39;;;;;;;1.75;0.77;;;18.00;62.60;;;;;;5072915;28;20029;-62
2021/05/30 01:37:06;;;;;;;4.25;1.20;;;18.00;62.90;;;;;;5072707;28;20058;-63
2021/05/30 01:39:34;;;;;;;3.78;1.27;;;18.00;63.10;;;;;;5072161;28;20024;-64
2021/05/30 01:42:02;;;;;;;2.78;1.13;;;18.00;63.00;;;;;;5066791;28;20037;-54
2021/05/30 01:44:29;;;;;;;2.25;0.95;;;18.00;63.00;;;;;;5069064;28;20143;-55
2021/05/30 01:46:57;;;;;;;4.03;1.50;;;18.00;62.90;;;;;;5069116;28;20056;-51
2021/05/30 01:49:24;;;;;;;3.70;1.00;;;18.10;64.90;;;;;;5068600;28;20441;-46
2021/05/30 01:51:51;;;;;;;2.30;1.00;;;18.30;63.70;;;;;;5069430;28;20021;-50
2021/05/30 01:54:20;;;;;;;3.47;1.00;;;18.50;62.60;;;;;;5068298;28;20029;-46
2021/05/30 01:56:57;;;;;;;1.92;1.05;;;18.50;61.70;;;;;;5068345;28;20111;-48
2021/05/30 01:59:29;;;;;;;1.67;0.90;;;18.60;62.30;;;;;;5066738;28;20044;-49
2021/05/30 02:01:59;;;;;;;3.47;1.00;;;18.70;61.40;;;;;;5070874;28;20108;-63
2021/05/30 02:04:38;;;;;;;3.63;1.38;;;19.00;62.00;;;;;;5070058;28;20020;-47
2021/05/30 02:07:07;;;;;;;2.72;1.02;;;19.30;59.90;;;;;;5067401;28;20430;-50
2021/05/30 02:09:37;;;;;;;2.65;0.88;;;19.30;59.60;;;;;;5063356;28;20502;-47
2021/05/30 02:12:07;;;;;;;5.28;1.40;;;19.20;59.50;;;;;;5069438;28;20045;-51
2021/05/30 02:14:35;;;;;;;11.38;4.57;;;19.10;59.60;;;;;;5065267;28;20071;-59
2021/05/30 02:17:03;;;;;;;10.52;7.05;;;19.00;59.90;;;;;;5069476;28;20021;-57
2021/05/30 02:19:31;;;;;;;16.73;9.32;;;19.00;60.60;;;;;;5066168;28;20024;-49
2021/05/30 02:21:59;;;;;;;17.90;10.30;;;18.90;60.50;;;;;;5068286;28;20043;-57
2021/05/30 02:24:27;;;;;;;18.10;11.02;;;18.90;60.60;;;;;;5069449;28;20063;-54
2021/05/30 02:26:55;;;;;;;20.35;11.05;;;18.90;60.70;;;;;;5069486;28;20070;-52
2021/05/30 02:29:30;;;;;;;26.98;16.40;;;18.90;60.80;;;;;;5065112;28;20043;-49
2021/05/30 02:31:58;;;;;;;31.15;18.50;;;18.90;61.10;;;;;;5069199;28;20517;-47
2021/05/30 02:34:25;;;;;;;27.40;19.00;;;18.80;61.30;;;;;;5068807;28;20035;-47
2021/05/30 02:36:52;;;;;;;26.13;16.33;;;18.70;61.60;;;;;;5071372;28;20486;-51
2021/05/30 02:39:20;;;;;;;32.58;18.75;;;18.70;61.80;;;;;;5065766;28;20632;-53
2021/05/30 02:41:47;;;;;;;29.00;17.70;;;18.60;62.20;;;;;;5071963;28;20499;-63
2021/05/30 02:44:15;;;;;;;29.60;19.10;;;18.60;62.30;;;;;;5072039;28;20025;-66
2021/05/30 02:46:42;;;;;;;25.25;17.83;;;18.60;62.60;;;;;;5071840;28;20020;-65
2021/05/30 02:49:10;;;;;;;33.28;20.38;;;18.50;62.90;;;;;;5072140;28;20051;-63
2021/05/30 02:51:37;;;;;;;29.15;20.40;;;18.50;63.00;;;;;;5071953;28;20035;-63
2021/05/30 02:54:05;;;;;;;34.63;22.70;;;18.40;63.30;;;;;;5072017;28;20035;-63
2021/05/30 02:56:32;;;;;;;33.70;24.08;;;18.40;63.50;;;;;;5071981;28;20024;-59
2021/05/30 02:59:00;;;;;;;36.00;24.63;;;18.40;63.80;;;;;;5070204;28;20485;-65
2021/05/30 03:01:27;;;;;;;36.17;22.35;;;18.40;63.90;;;;;;5072048;28;20017;-63
2021/05/30 03:03:55;;;;;;;37.50;22.67;;;18.30;63.80;;;;;;5072164;28;20111;-63
2021/05/30 03:06:26;;;;;;;35.00;22.70;;;18.30;63.80;;;;;;5071051;28;20463;-62
2021/05/30 03:08:54;;;;;;;32.00;21.47;;;18.30;64.20;;;;;;5074350;28;20173;-62
2021/05/30 03:11:22;;;;;;;33.80;20.88;;;18.20;64.10;;;;;;5075355;28;20291;-61
2021/05/30 03:13:53;;;;;;;34.80;21.77;;;18.20;64.80;;;;;;5075845;28;20023;-62
2021/05/30 03:16:21;;;;;;;15.32;8.30;;;18.10;64.40;;;;;;5067218;28;20461;-53
2021/05/30 03:18:49;;;;;;;24.55;10.43;;;18.00;66.00;;;;;;5074289;28;20025;-56
2021/05/30 03:21:17;;;;;;;16.30;7.63;;;17.80;67.10;;;;;;5073124;28;20048;-55
2021/05/30 03:23:45;;;;;;;23.75;13.60;;;17.60;67.90;;;;;;5074898;28;20031;-55
2021/05/30 03:26:13;;;;;;;6.65;2.38;;;17.50;67.80;;;;;;5072424;28;20028;-57
2021/05/30 03:28:40;;;;;;;8.55;4.50;;;17.50;68.70;;;;;;5074866;28;20081;-62
2021/05/30 03:31:08;;;;;;;12.30;2.58;;;17.30;69.00;;;;;;5075184;28;20028;-56
2021/05/30 03:33:35;;;;;;;16.58;7.53;;;17.30;69.40;;;;;;5075230;28;20036;-59
2021/05/30 03:36:06;;;;;;;13.18;6.38;;;17.40;68.70;;;;;;5074922;28;20157;-56
2021/05/30 03:38:34;;;;;;;22.50;12.68;;;17.40;68.80;;;;;;5074678;28;20024;-58
2021/05/30 03:41:10;;;;;;;9.10;2.30;;;17.30;68.80;;;;;;5073443;28;20098;-59
2021/05/30 03:43:39;;;;;;;26.13;16.42;;;17.30;69.20;;;;;;5075345;28;20040;-60
2021/05/30 03:46:07;;;;;;;15.20;7.60;;;17.40;69.10;;;;;;5075198;28;20438;-59
2021/05/30 03:48:34;;;;;;;13.57;6.55;;;17.40;68.70;;;;;;5074830;28;20024;-59
2021/05/30 03:51:02;;;;;;;16.83;9.63;;;17.40;69.20;;;;;;5075158;28;20037;-48
2021/05/30 03:53:29;;;;;;;20.73;13.32;;;17.40;68.80;;;;;;5073912;28;20025;-60
2021/05/30 03:55:56;;;;;;;16.05;4.88;;;17.50;69.60;;;;;;5074948;28;20389;-58
2021/05/30 03:58:24;;;;;;;21.95;6.38;;;17.40;69.00;;;;;;5074365;28;20016;-55
2021/05/30 04:00:52;;;;;;;8.38;2.28;;;17.40;69.80;;;;;;5068414;28;20032;-53
2021/05/30 04:03:19;;;;;;;29.98;22.27;;;17.30;68.60;;;;;;5082282;28;20052;-57
2021/05/30 04:05:46;;;;;;;9.48;4.13;;;17.40;70.90;;;;;;5094967;28;20192;-59
2021/05/30 04:08:14;;;;;;;37.53;27.05;;;17.40;69.70;;;;;;5094465;28;20020;-62
2021/05/30 04:10:44;;;;;;;7.15;2.70;;;17.50;72.40;;;;;;5067510;28;20067;-56
2021/05/30 04:13:11;;;;;;;18.92;9.25;;;17.20;70.80;;;;;;5071936;28;20120;-56
2021/05/30 04:15:39;;;;;;;25.67;15.52;;;17.40;70.80;;;;;;5074479;28;20028;-62
2021/05/30 04:18:06;;;;;;;24.67;16.90;;;17.30;71.80;;;;;;5074770;28;20123;-64
2021/05/30 04:20:34;;;;;;;13.95;5.20;;;16.90;74.50;;;;;;5074395;28;20035;-61
2021/05/30 04:23:01;;;;;;;21.02;12.68;;;16.90;74.70;;;;;;5074563;28;20048;-57
2021/05/30 04:25:28;;;;;;;13.82;6.68;;;17.20;75.40;;;;;;5074343;28;20079;-55
2021/05/30 04:27:56;;;;;;;13.45;7.15;;;17.00;77.40;;;;;;5074376;28;20031;-63
2021/05/30 04:30:23;;;;;;;20.05;11.55;;;16.80;79.50;;;;;;5073892;28;20438;-52
2021/05/30 04:32:51;;;;;;;19.60;6.75;;;16.90;79.90;;;;;;5074180;28;20025;-58
2021/05/30 04:35:18;;;;;;;6.35;2.13;;;16.70;80.70;;;;;;5074226;28;20144;-58
2021/05/30 04:37:46;;;;;;;14.05;8.18;;;16.70;79.90;;;;;;5074398;28;20047;-61
2021/05/30 04:40:13;;;;;;;7.03;1.88;;;16.80;79.80;;;;;;5074021;28;20028;-61
2021/05/30 04:42:40;;;;;;;19.63;9.68;;;16.90;78.50;;;;;;5071687;28;20409;-61
2021/05/30 04:45:08;;;;;;;9.10;3.47;;;17.00;80.60;;;;;;5074224;28;20024;-60
2021/05/30 04:47:36;;;;;;;27.25;10.85;;;17.00;76.30;;;;;;5073952;28;20067;-60
2021/05/30 04:50:04;;;;;;;12.85;6.70;;;17.10;80.10;;;;;;5073830;28;20036;-61
2021/05/30 04:52:32;;;;;;;22.77;11.40;;;17.30;77.90;;;;;;5072899;28;20032;-58
2021/05/30 04:54:59;;;;;;;20.67;10.18;;;17.50;78.10;;;;;;5073546;28;20028;-60
2021/05/30 04:57:27;;;;;;;22.38;9.38;;;17.40;78.50;;;;;;5073173;28;20055;-56
2021/05/30 04:59:55;;;;;;;18.40;9.43;;;16.90;80.20;;;;;;5072308;28;20031;-48
2021/05/30 05:02:23;;;;;;;30.67;9.40;;;17.10;78.00;;;;;;5071373;28;20380;-49
2021/05/30 05:04:53;;;;;;;16.10;6.93;;;17.40;77.80;;;;;;5071789;28;20519;-50
2021/05/30 05:07:21;;;;;;;38.42;6.25;;;17.60;77.90;;;;;;5071637;28;20470;-54
2021/05/30 05:09:48;;;;;;;13.65;5.18;;;17.70;76.50;;;;;;5071627;28;20392;-51
2021/05/30 05:12:16;;;;;;;21.75;5.22;;;17.90;76.50;;;;;;5071335;28;20389;-55
2021/05/30 05:14:43;;;;;;;21.52;4.25;;;18.00;76.00;;;;;;5072232;28;20039;-55
2021/05/30 05:17:11;;;;;;;15.85;4.50;;;18.00;74.80;;;;;;5073531;28;20125;-54
2021/05/30 05:19:38;;;;;;;18.27;4.00;;;18.10;75.10;;;;;;5072608;28;20039;-51
2021/05/30 05:22:06;;;;;;;22.33;3.92;;;18.20;74.50;;;;;;5073514;28;20019;-51
2021/05/30 05:24:34;;;;;;;13.25;3.08;;;18.30;75.10;;;;;;5073200;28;20116;-52
2021/05/30 05:27:01;;;;;;;16.65;3.05;;;18.40;75.00;;;;;;5072193;28;20136;-53
2021/05/30 05:29:29;;;;;;;17.50;3.55;;;18.40;74.10;;;;;;5072996;28;20054;-47
2021/05/30 05:31:59;;;;;;;10.20;3.05;;;18.50;74.20;;;;;;5072148;28;20025;-47
2021/05/30 05:34:26;;;;;;;19.95;3.80;;;18.50;72.70;;;;;;5072488;28;20471;-50
2021/05/30 05:36:54;;;;;;;15.70;2.95;;;18.50;74.00;;;;;;5072646;28;20071;-51
2021/05/30 05:39:21;;;;;;;20.80;2.45;;;18.60;73.30;;;;;;5073295;28;20426;-50
2021/05/30 05:41:51;;;;;;;14.25;3.40;;;18.60;72.50;;;;;;5072349;28;20048;-47
2021/05/30 05:44:19;;;;;;;24.50;3.45;;;18.60;73.00;;;;;;5072360;28;20039;-45
2021/05/30 05:46:46;;;;;;;27.65;4.07;;;18.50;73.60;;;;;;5072061;28;20493;-54
2021/05/30 05:49:13;;;;;;;30.85;3.50;;;18.50;73.20;;;;;;5072285;28;20199;-49
2021/05/30 05:51:41;;;;;;;22.13;3.00;;;18.60;74.00;;;;;;5072555;28;20036;-57
2021/05/30 05:54:08;;;;;;;24.25;4.22;;;18.60;73.50;;;;;;5072043;28;20056;-52
2021/05/30 05:56:35;;;;;;;17.50;2.75;;;18.60;73.40;;;;;;5071262;28;20034;-51
2021/05/30 05:59:03;;;;;;;33.67;2.85;;;18.70;72.70;;;;;;5070468;28;20025;-49
2021/05/30 06:01:30;;;;;;;23.65;3.03;;;18.70;73.00;;;;;;5072040;28;20028;-53
2021/05/30 06:03:57;;;;;;;56.47;5.57;;;18.70;73.40;;;;;;5072118;28;20069;-48
2021/05/30 06:06:25;;;;;;;30.88;3.85;;;18.80;72.20;;;;;;5072105;28;20123;-49
2021/05/30 06:08:52;;;;;;;31.02;3.00;;;18.70;72.70;;;;;;5072040;28;20017;-53
2021/05/30 06:11:19;;;;;;;21.75;2.58;;;18.70;73.60;;;;;;5071554;28;20056;-50
2021/05/30 06:13:47;;;;;;;14.60;2.20;;;18.60;73.20;;;;;;5072272;28;20383;-57
2021/05/30 06:16:14;;;;;;;16.83;3.53;;;18.60;73.40;;;;;;5072075;28;20031;-58
2021/05/30 06:18:43;;;;;;;17.70;3.47;;;18.50;72.20;;;;;;5070596;28;20021;-48
2021/05/30 06:21:10;;;;;;;23.02;3.72;;;18.50;72.10;;;;;;5071912;28;20020;-56
2021/05/30 06:23:38;;;;;;;11.32;2.83;;;18.40;72.20;;;;;;5070383;28;20420;-53
2021/05/30 06:26:10;;;;;;;13.07;2.63;;;18.40;72.50;;;;;;5062843;28;20028;-49
2021/05/30 06:28:37;;;;;;;27.40;2.83;;;18.40;71.00;;;;;;5070894;28;20021;-55
2021/05/30 06:31:05;;;;;;;13.75;2.80;;;18.30;71.80;;;;;;5069083;28;20597;-54
2021/05/30 06:33:32;;;;;;;13.57;2.90;;;18.30;71.90;;;;;;5069498;28;20120;-46
2021/05/30 06:35:59;;;;;;;11.07;3.08;;;18.30;72.40;;;;;;5066826;28;20028;-51
2021/05/30 06:38:27;;;;;;;8.40;2.17;;;18.30;73.00;;;;;;5068808;28;20017;-55
2021/05/30 06:40:54;;;;;;;11.05;3.08;;;18.30;73.60;;;;;;5069631;28;20418;-50
2021/05/30 06:43:21;;;;;;;20.73;3.25;;;18.30;74.20;;;;;;5068695;28;20127;-49
2021/05/30 06:45:49;;;;;;;12.88;2.63;;;18.30;74.30;;;;;;5065054;28;20051;-51
2021/05/30 06:48:19;;;;;;;10.95;3.00;;;18.30;73.80;;;;;;5069377;28;20032;-47
2021/05/30 06:51:30;;;;;;;22.85;3.33;;;18.20;73.30;;;;;;5069286;28;20038;-48
2021/05/30 06:53:38;;;;;;;11.23;2.42;;;18.20;73.30;;;;;;5059563;28;20067;-51
2021/05/30 06:56:05;;;;;;;20.33;3.25;;;18.10;73.00;;;;;;5066438;28;20120;-52
2021/05/30 06:58:33;;;;;;;12.10;2.63;;;18.10;73.40;;;;;;5069566;28;20082;-49
2021/05/30 07:01:00;;;;;;;10.32;2.78;;;18.10;73.40;;;;;;5068737;28;20021;-51
2021/05/30 07:03:27;;;;;;;10.60;2.65;;;18.10;73.60;;;;;;5065164;28;20115;-49
2021/05/30 07:05:54;;;;;;;9.73;2.35;;;18.10;73.70;;;;;;5066246;28;20112;-47
2021/05/30 07:08:22;;;;;;;13.88;2.28;;;18.10;73.70;;;;;;5068662;28;20459;-52
2021/05/30 07:10:49;;;;;;;13.75;2.83;;;18.00;73.90;;;;;;5069350;28;20037;-52
2021/05/30 07:13:17;;;;;;;8.20;2.25;;;18.00;74.10;;;;;;5068910;28;20475;-53
2021/05/30 07:15:44;;;;;;;16.85;2.92;;;18.00;74.50;;;;;;5071071;28;20073;-55
2021/05/30 07:18:12;;;;;;;12.73;2.67;;;18.00;74.20;;;;;;5070859;28;20051;-54
2021/05/30 07:20:42;;;;;;;7.75;2.10;;;18.00;75.00;;;;;;5068698;28;20035;-58
2021/05/30 07:23:11;;;;;;;12.63;3.70;;;18.00;74.90;;;;;;5071919;28;20033;-60
2021/05/30 07:25:39;;;;;;;7.88;2.28;;;18.00;75.00;;;;;;5071529;28;20051;-54
2021/05/30 07:28:07;;;;;;;4.80;2.55;;;18.00;74.80;;;;;;5071247;28;20101;-56
2021/05/30 07:30:35;;;;;;;11.55;2.97;;;17.90;74.70;;;;;;5071531;28;20384;-54
2021/05/30 07:33:07;;;;;;;6.70;1.88;;;17.90;74.70;;;;;;5071546;28;20020;-53
2021/05/30 07:35:36;;;;;;;4.55;1.77;;;17.90;74.60;;;;;;5071508;28;20025;-56
2021/05/30 07:38:04;;;;;;;10.00;2.40;;;17.90;74.70;;;;;;5071702;28;20048;-55
2021/05/30 07:40:32;;;;;;;6.80;2.08;;;17.90;74.70;;;;;;5071226;28;20145;-53
2021/05/30 07:43:01;;;;;;;6.15;2.55;;;17.80;74.80;;;;;;5071565;28;20021;-56
2021/05/30 07:45:29;;;;;;;4.97;1.80;;;17.80;74.70;;;;;;5071447;28;20052;-53
2021/05/30 07:47:57;;;;;;;8.85;2.15;;;17.80;74.60;;;;;;5071608;28;20028;-54
2021/05/30 07:50:25;;;;;;;5.35;2.15;;;17.80;74.60;;;;;;5071489;28;20052;-58
2021/05/30 07:52:53;;;;;;;5.03;1.88;;;17.80;74.70;;;;;;5071612;28;20052;-54
2021/05/30 07:55:23;;;;;;;5.88;1.75;;;17.70;74.70;;;;;;5074341;28;20128;-55
2021/05/30 07:57:51;;;;;;;6.55;2.22;;;17.70;74.60;;;;;;5075400;28;20021;-57
2021/05/30 08:00:19;;;;;;;9.48;2.05;;;17.70;74.70;;;;;;5075411;28;20024;-56
2021/05/30 08:02:47;;;;;;;7.88;2.28;;;17.70;74.70;;;;;;5074859;28;20016;-55
2021/05/30 08:05:20;;;;;;;7.40;2.38;;;17.70;74.70;;;;;;5074757;28;20048;-51
2021/05/30 08:07:49;;;;;;;4.38;2.10;;;17.70;74.60;;;;;;5075363;28;20379;-50
2021/05/30 08:10:18;;;;;;;6.25;1.65;;;17.70;74.70;;;;;;5074909;28;20078;-51
2021/05/30 08:12:46;;;;;;;8.57;1.95;;;17.60;74.50;;;;;;5074893;28;20041;-52
2021/05/30 08:15:14;;;;;;;4.97;1.83;;;17.60;74.50;;;;;;5074682;28;20032;-52
2021/05/30 08:17:43;;;;;;;6.25;2.30;;;17.60;74.50;;;;;;5074864;28;20025;-53
2021/05/30 08:20:12;;;;;;;6.95;2.10;;;17.60;74.50;;;;;;5074402;28;20481;-50
2021/05/30 08:22:40;;;;;;;4.25;1.70;;;17.50;74.40;;;;;;5074558;28;20020;-54
2021/05/30 08:25:08;;;;;;;6.88;2.30;;;17.50;74.40;;;;;;5074952;28;20039;-58
2021/05/30 08:27:36;;;;;;;9.30;2.20;;;17.50;74.30;;;;;;5074889;28;20030;-53
2021/05/30 08:30:05;;;;;;;5.57;1.65;;;17.50;74.30;;;;;;5074838;28;20344;-52
2021/05/30 08:32:32;;;;;;;3.50;1.58;;;17.50;74.30;;;;;;5073962;28;20025;-46
2021/05/30 08:35:00;;;;;;;5.35;1.73;;;17.50;74.20;;;;;;5056963;28;20024;-46
2021/05/30 08:37:27;;;;;;;3.17;1.88;;;17.50;74.10;;;;;;5074533;28;20078;-53
2021/05/30 08:39:54;;;;;;;7.03;1.98;;;17.50;74.10;;;;;;5074463;28;20516;-51
2021/05/30 08:42:23;;;;;;;5.93;1.95;;;17.40;74.00;;;;;;5074508;28;20032;-57
2021/05/30 08:44:52;;;;;;;3.83;1.65;;;17.50;74.00;;;;;;5074469;28;20025;-51
2021/05/30 08:47:23;;;;;;;5.90;1.98;;;17.40;73.90;;;;;;5074184;28;20021;-51
2021/05/30 08:49:51;;;;;;;5.65;1.80;;;17.40;73.90;;;;;;5073892;28;20467;-52
2021/05/30 08:52:19;;;;;;;5.13;2.10;;;17.40;73.90;;;;;;5072740;28;20386;-55
2021/05/30 08:54:47;;;;;;;6.28;2.30;;;17.40;74.00;;;;;;5074328;28;20043;-52
2021/05/30 08:57:14;;;;;;;3.92;1.90;;;17.40;73.90;;;;;;5074473;28;20064;-52
2021/05/30 08:59:56;;;;;;;4.63;1.80;;;17.40;73.90;;;;;;5073974;28;20028;-55
2021/05/30 09:02:24;;;;;;;5.57;2.78;;;17.30;73.80;;;;;;5073693;28;20155;-53
2021/05/30 09:04:55;;;;;;;3.35;1.70;;;17.30;72.90;;;;;;5073639;28;20032;-59
2021/05/30 09:07:42;;;;;;;3.55;1.58;;;17.30;73.60;;;;;;5061993;28;20025;-56
2021/05/30 09:10:18;;;;;;;4.43;2.05;;;17.30;73.80;;;;;;5070313;28;20123;-49
2021/05/30 09:12:46;;;;;;;5.25;1.80;;;17.30;73.70;;;;;;5071481;28;20049;-50
2021/05/30 09:15:27;;;;;;;6.65;1.70;;;17.30;73.70;;;;;;5070743;28;20116;-45
2021/05/30 09:18:13;;;;;;;3.15;1.58;;;17.30;73.60;;;;;;5069082;28;20016;-49
2021/05/30 09:20:52;;;;;;;7.00;2.55;;;17.30;73.60;;;;;;5069735;28;20032;-49
2021/05/30 09:23:45;;;;;;;4.68;2.00;;;17.40;73.60;;;;;;5068115;28;20090;-57
2021/05/30 09:26:21;;;;;;;;;;;17.40;73.50;;;;;;5070517;28;20054;-47
2021/05/30 09:29:08;;;;;;;7.72;1.80;;;17.40;73.50;;;;;;5067131;28;19912;-55
2021/05/30 09:31:53;;;;;;;5.93;1.63;;;17.40;73.30;;;;;;5070211;28;20036;-47
2021/05/30 09:34:38;;;;;;;4.22;1.77;;;17.40;73.00;;;;;;5070301;28;20089;-47
2021/05/30 09:37:08;;;;;;;2.80;1.48;;;17.40;72.80;;;;;;5070540;28;20028;-49
2021/05/30 09:39:35;;;;;;;3.78;1.77;;;17.40;72.80;;;;;;5067211;28;20029;-57
2021/05/30 09:42:36;;;;;;;5.55;1.75;;;17.40;73.00;;;;;;5070022;28;20423;-49
2021/05/30 09:45:05;;;;;;;5.00;1.95;;;17.40;73.00;;;;;;5068919;28;20033;-46
2021/05/30 09:47:46;;;;;;;4.78;1.48;;;17.40;72.90;;;;;;5070747;28;20033;-49
2021/05/30 09:50:16;;;;;;;3.10;1.98;;;17.40;72.60;;;;;;5067310;28;20067;-50
2021/05/30 09:52:46;;;;;;;8.20;1.80;;;17.40;72.50;;;;;;5069041;28;20031;-47
2021/05/30 09:55:21;;;;;;;4.90;1.38;;;17.40;72.60;;;;;;5065518;28;20046;-55
2021/05/30 09:58:15;;;;;;;2.70;1.60;;;17.40;72.50;;;;;;5067569;28;20029;-44
2021/05/30 10:00:59;;;;;;;3.85;1.70;;;17.50;72.50;;;;;;5069863;28;20029;-43
2021/05/30 10:03:27;;;;;;;2.50;1.60;;;17.40;72.40;;;;;;5072343;28;20379;-48
2021/05/30 10:05:54;;;;;;;5.40;1.88;;;17.40;72.40;;;;;;5070279;28;20028;-52
2021/05/30 10:08:25;;;;;;;6.00;1.83;;;17.40;72.20;;;;;;5066934;28;20122;-46
2021/05/30 10:10:52;;;;;;;5.00;1.55;;;17.40;72.20;;;;;;5069538;28;20039;-48
2021/05/30 10:13:19;;;;;;;3.53;1.60;;;17.40;72.20;;;;;;5067013;28;20032;-47
2021/05/30 10:15:47;;;;;;;3.97;1.60;;;17.40;72.20;;;;;;5070104;28;20488;-45
2021/05/30 10:18:23;;;;;;;3.45;1.33;;;17.40;72.60;;;;;;5068137;28;20028;-51
2021/05/30 10:20:52;;;;;;;2.55;1.80;;;17.40;72.50;;;;;;5067317;28;20043;-43
2021/05/30 10:23:22;;;;;;;4.18;1.50;;;17.30;72.50;;;;;;5070389;28;20556;-44
2021/05/30 10:25:50;;;;;;;2.55;1.77;;;17.30;72.60;;;;;;5070356;28;20435;-56
2021/05/30 10:28:22;;;;;;;3.78;1.70;;;17.30;72.50;;;;;;5067441;28;20483;-54
2021/05/30 10:31:12;;;;;;;2.47;1.23;;;17.30;72.50;;;;;;5070440;28;20032;-50
2021/05/30 10:33:39;;;;;;;4.70;1.70;;;17.30;72.30;;;;;;5069476;28;20483;-58
2021/05/30 10:36:14;;;;;;;3.67;1.50;;;17.30;72.50;;;;;;5070230;28;20027;-59
2021/05/30 10:38:45;;;;;;;3.40;1.80;;;17.30;72.30;;;;;;5066483;28;20032;-45
2021/05/30 10:41:20;;;;;;;3.28;1.60;;;17.30;72.30;;;;;;5070179;28;20375;-52
2021/05/30 10:43:48;;;;;;;3.50;1.50;;;17.30;73.20;;;;;;5066377;28;20024;-47
2021/05/30 10:46:18;;;;;;;3.97;1.52;;;17.30;72.60;;;;;;5070061;28;20032;-67
2021/05/30 10:49:08;;;;;;;4.10;1.40;;;17.30;72.50;;;;;;5066197;28;20032;-54
2021/05/30 10:51:49;;;;;;;4.63;2.30;;;17.30;72.40;;;;;;5068095;28;20043;-50
2021/05/30 10:54:16;;;;;;;3.47;1.50;;;17.30;72.30;;;;;;5069089;28;20029;-55
2021/05/30 10:56:57;;;;;;;4.32;1.67;;;17.20;72.30;;;;;;5069411;28;20040;-56
2021/05/30 10:59:27;;;;;;;3.97;1.55;;;17.20;73.10;;;;;;5065795;28;20025;-48
2021/05/30 11:01:57;;;;;;;2.22;1.30;;;17.20;72.70;;;;;;5073687;28;20471;-61
2021/05/30 11:04:28;;;;;;;5.63;1.55;;;17.20;72.50;;;;;;5069281;28;20025;-54
2021/05/30 11:07:07;;;;;;;2.50;1.38;;;17.20;72.50;;;;;;5068845;28;20482;-50
2021/05/30 11:09:59;;;;;;;2.75;1.35;;;17.20;72.50;;;;;;5065701;28;20033;-51
2021/05/30 11:12:51;;;;;;;2.03;1.27;;;17.30;72.50;;;;;;5069381;28;20067;-52
2021/05/30 11:15:19;;;;;;;2.70;1.30;;;17.30;72.30;;;;;;5068757;28;20051;-51
2021/05/30 11:17:52;;;;;;;2.20;1.27;;;17.20;72.20;;;;;;5069400;28;21309;-56
2021/05/30 11:20:27;;;;;;;3.15;1.60;;;17.20;72.00;;;;;;5066105;28;20429;-58
2021/05/30 11:23:01;;;;;;;2.40;1.10;;;17.30;72.20;;;;;;5067670;28;20029;-56
2021/05/30 11:25:36;;;;;;;3.33;1.83;;;17.20;72.00;;;;;;5065508;28;20510;-54
2021/05/30 11:28:09;;;;;;;2.75;1.40;;;17.30;71.60;;;;;;5068854;28;20103;-57
2021/05/30 11:30:46;;;;;;;3.42;1.23;;;17.20;71.70;;;;;;5071060;28;20043;-45
2021/05/30 11:33:21;;;;;;;2.42;1.38;;;17.20;71.80;;;;;;5073649;28;20540;-48
2021/05/30 11:35:58;;;;;;;2.72;1.20;;;17.20;71.90;;;;;;5072728;28;20112;-54
2021/05/30 11:39:16;;;;;;;1.95;1.33;;;17.20;71.80;;;;;;5069803;28;20029;-52
2021/05/30 11:41:52;;;;;;;3.90;1.30;;;17.20;71.80;;;;;;4987777;28;20023;-53
2021/05/30 11:44:27;;;;;;;3.92;1.30;;;17.20;71.70;;;;;;5069885;28;20553;-49
2021/05/30 11:47:03;;;;;;;2.63;1.40;;;17.20;71.70;;;;;;5072643;28;20048;-61
2021/05/30 11:49:36;;;;;;;2.75;1.50;;;17.10;71.70;;;;;;5066463;28;20033;-50
2021/05/30 11:52:05;;;;;;;2.60;1.30;;;17.10;71.70;;;;;;5072094;28;20532;-50
2021/05/30 11:54:45;;;;;;;2.50;1.48;;;17.10;71.70;;;;;;5072683;28;20024;-57
2021/05/30 11:57:24;;;;;;;1.60;1.20;;;17.10;71.80;;;;;;5068869;28;20561;-51
2021/05/30 11:59:59;;;;;;;3.80;1.08;;;17.00;72.50;;;;;;5069724;28;20490;-50
2021/05/30 12:02:40;;;;;;;2.13;1.40;;;17.10;71.90;;;;;;5072202;28;20036;-50
2021/05/30 12:05:12;;;;;;;4.22;1.23;;;17.00;71.90;;;;;;5069818;28;20024;-46
2021/05/30 12:07:40;;;;;;;3.92;1.52;;;17.00;72.00;;;;;;5073381;28;20066;-48
2021/05/30 12:10:13;;;;;;;2.78;1.55;;;17.00;72.00;;;;;;5068539;28;20111;-48
2021/05/30 12:12:39;;;;;;;;;;;17.00;71.90;;;;;;5073079;28;20036;-51
2021/05/30 12:15:19;;;;;;;1.60;1.00;;;17.00;72.10;;;;;;5072945;28;20343;-53
2021/05/30 12:18:07;;;;;;;2.75;1.23;;;17.00;71.70;;;;;;5072183;28;20372;-52
2021/05/30 12:20:37;;;;;;;2.38;1.20;;;17.00;71.80;;;;;;5070470;28;20040;-51
2021/05/30 12:23:13;;;;;;;2.03;1.30;;;17.00;71.80;;;;;;5071529;28;20075;-46
2021/05/30 12:26:10;;;;;;;1.88;1.40;;;17.00;71.70;;;;;;5069781;28;20398;-52
2021/05/30 12:28:40;;;;;;;2.58;1.23;;;16.90;71.60;;;;;;5068326;28;20111;-49
2021/05/30 12:31:11;;;;;;;1.63;1.23;;;17.00;71.80;;;;;;5072469;28;20033;-48
2021/05/30 12:34:13;;;;;;;1.88;1.20;;;16.90;71.70;;;;;;5072471;28;20477;-54
2021/05/30 12:36:50;;;;;;;3.65;1.42;;;17.00;71.50;;;;;;4969934;28;20035;-45
2021/05/30 12:39:24;;;;;;;2.35;1.15;;;16.90;71.60;;;;;;5052127;28;20482;-55
2021/05/30 12:42:03;;;;;;;2.75;1.35;;;17.00;71.60;;;;;;5071045;28;20035;-62
2021/05/30 12:44:42;;;;;;;2.45;1.55;;;16.90;71.60;;;;;;5071569;28;20028;-50
2021/05/30 12:47:19;;;;;;;2.63;1.48;;;16.90;71.20;;;;;;5069455;28;20028;-52
2021/05/30 12:49:59;;;;;;;2.95;1.10;;;16.90;71.70;;;;;;5068783;28;20107;-59
2021/05/30 12:52:41;;;;;;;1.73;1.17;;;16.90;71.80;;;;;;5071783;28;20519;-50
2021/05/30 12:55:09;;;;;;;2.30;1.15;;;16.90;71.70;;;;;;5067249;28;20415;-49
2021/05/30 12:57:43;;;;;;;2.22;1.20;;;16.90;71.70;;;;;;5071488;28;20410;-49
2021/05/30 13:00:12;;;;;;;2.30;1.35;;;16.90;71.70;;;;;;5065689;28;20029;-53